Time;durP1;ratioP1;P1;durP2;ratioP2;P2;SDS_P1;SDS_P2;PMS_P1;PMS_P2;Temp;Humidity;BMP_temperature;BMP_pressure;BME280_temperature;BME280_humidity;BME280_pressure;Samples;Min_cycle;Max_cycle;Signal;HPM_P1;HPM_P2
2021/10/13 00:02:01;;;;;;;;;25.00;19.33;;;;;14.20;68.00;102153.91;5057621;28;61068;-76
2021/10/13 00:04:26;;;;;;;;;22.67;15.67;;;;;14.18;67.72;102158.31;5061143;28;45158;-75
2021/10/13 00:06:52;;;;;;;;;12.33;11.33;;;;;14.15;68.16;102152.94;5048120;28;45393;-76
2021/10/13 00:09:17;;;;;;;;;12.67;11.67;;;;;14.11;68.21;102157.34;5054943;28;45516;-76
2021/10/13 00:11:42;;;;;;;;;8.00;7.67;;;;;14.03;68.41;102143.00;5051482;28;46378;-76
2021/10/13 00:14:08;;;;;;;;;12.00;9.33;;;;;14.02;68.74;102148.31;5058603;28;62261;-76
2021/10/13 00:16:34;;;;;;;;;13.00;9.33;;;;;14.02;69.11;102146.53;5060780;28;58524;-76
2021/10/13 00:18:59;;;;;;;;;9.00;6.00;;;;;14.01;68.87;102139.44;5058976;28;45536;-76
2021/10/13 00:21:25;;;;;;;;;14.67;10.67;;;;;14.00;68.82;102140.28;5048077;28;63268;-76
2021/10/13 00:23:50;;;;;;;;;10.00;8.33;;;;;13.96;68.94;102140.22;5049549;28;45351;-76
2021/10/13 00:26:16;;;;;;;;;11.67;10.00;;;;;13.99;69.20;102159.75;5057161;28;45297;-76
2021/10/13 00:28:41;;;;;;;;;13.00;10.33;;;;;13.98;68.88;102151.75;5050343;28;55910;-77
2021/10/13 00:31:07;;;;;;;;;11.00;9.67;;;;;14.00;69.36;102157.97;5053679;28;61622;-76
2021/10/13 00:33:33;;;;;;;;;8.33;8.33;;;;;14.01;69.05;102168.66;5059941;28;45504;-75
2021/10/13 00:35:58;;;;;;;;;10.33;9.67;;;;;14.00;68.71;102174.81;5046300;28;45286;-76
2021/10/13 00:38:23;;;;;;;;;10.00;9.67;;;;;13.97;69.21;102171.22;5054813;28;57784;-76
2021/10/13 00:40:49;;;;;;;;;12.00;10.67;;;;;13.93;68.93;102164.94;5057903;28;55039;-76
2021/10/13 00:43:14;;;;;;;;;12.67;9.33;;;;;13.90;68.98;102164.88;5055493;28;56906;-76
2021/10/13 00:45:40;;;;;;;;;10.33;7.33;;;;;13.85;69.17;102169.25;5058849;28;45427;-76
2021/10/13 00:48:05;;;;;;;;;12.67;9.00;;;;;13.81;68.73;102183.31;5048126;28;55833;-76
2021/10/13 00:50:30;;;;;;;;;11.00;9.67;;;;;13.79;69.16;102174.41;5057297;28;62160;-76
2021/10/13 00:52:56;;;;;;;;;8.00;7.67;;;;;13.76;69.38;102171.72;5058793;28;45477;-76
2021/10/13 00:55:21;;;;;;;;;13.33;8.67;;;;;13.74;69.22;102170.75;5050985;28;45476;-76
2021/10/13 00:57:48;;;;;;;;;14.00;8.00;;;;;13.68;69.47;102162.69;5054719;28;45627;-76
2021/10/13 01:00:14;;;;;;;;;12.33;7.00;;;;;13.71;69.40;102184.00;5057576;28;46894;-76
2021/10/13 01:02:52;;;;;;;;;12.67;8.33;;;;;13.69;69.61;102178.66;5054295;28;45644;-76
2021/10/13 01:05:29;;;;;;;;;10.00;10.00;;;;;13.68;69.80;102184.81;5022511;28;45392;-76
2021/10/13 01:08:04;;;;;;;;;12.00;10.33;;;;;13.60;69.62;102179.38;5059205;28;45384;-76
2021/10/13 01:10:39;;;;;;;;;12.67;8.67;;;;;13.63;69.93;102187.41;5058299;28;46597;-75
2021/10/13 01:13:16;;;;;;;;;13.33;9.00;;;;;13.63;70.07;102195.38;5043337;28;45490;-76
2021/10/13 01:16:04;;;;;;;;;10.67;9.67;;;;;13.56;69.92;102190.78;5037575;28;45526;-76
2021/10/13 01:18:45;;;;;;;;;11.33;9.00;;;;;13.54;69.80;102184.56;5041452;28;45448;-77
2021/10/13 01:21:31;;;;;;;;;12.00;7.33;;;;;13.58;69.83;102182.84;5041900;28;45703;-77
2021/10/13 01:24:17;;;;;;;;;8.33;7.00;;;;;13.61;70.13;102188.22;5046682;28;45534;-76
2021/10/13 01:26:54;;;;;;;;;11.00;7.00;;;;;13.59;69.50;102196.16;5061173;28;45628;-76
2021/10/13 01:29:20;;;;;;;;;9.33;7.67;;;;;13.59;70.03;102196.16;5053703;28;45458;-76
2021/10/13 01:32:13;;;;;;;;;12.00;10.00;;;;;13.58;70.06;102197.03;5030103;28;46906;-75
2021/10/13 01:34:40;;;;;;;;;8.33;7.00;;;;;13.57;69.98;102181.06;5058274;28;45474;-76
2021/10/13 01:37:10;;;;;;;;;9.33;6.00;;;;;13.55;69.66;102183.69;5041809;28;45464;-76
2021/10/13 01:39:36;;;;;;;;;7.00;6.00;;;;;13.53;69.73;102201.34;5029525;28;45409;-77
2021/10/13 01:42:05;;;;;;;;;6.00;6.00;;;;;13.47;69.84;102189.69;5037245;28;46622;-76
2021/10/13 01:44:30;;;;;;;;;9.00;6.00;;;;;13.48;69.95;102205.66;5039374;28;63944;-77
2021/10/13 01:46:56;;;;;;;;;11.00;5.33;;;;;13.48;69.38;102202.13;5039229;28;45464;-76
2021/10/13 01:49:21;;;;;;;;;8.67;6.33;;;;;13.46;69.54;102199.41;5037898;28;46216;-76
2021/10/13 01:51:46;;;;;;;;;5.67;5.00;;;;;13.44;69.47;102198.50;5032513;28;64012;-76
2021/10/13 01:54:12;;;;;;;;;6.00;5.33;;;;;13.38;69.27;102189.50;5060148;28;60219;-75
2021/10/13 01:56:38;;;;;;;;;10.67;6.00;;;;;13.33;69.02;102182.34;5038578;28;45494;-77
2021/10/13 01:59:08;;;;;;;;;6.00;5.00;;;;;13.33;69.07;102200.03;5057485;28;45269;-76
2021/10/13 02:01:35;;;;;;;;;10.67;8.67;;;;;13.30;69.13;102198.19;5038700;28;46998;-75
2021/10/13 02:04:02;;;;;;;;;7.00;6.00;;;;;13.23;69.13;102192.72;5025346;28;45462;-77
2021/10/13 02:06:28;;;;;;;;;8.00;4.00;;;;;13.28;69.14;102206.97;5039809;28;45281;-76
2021/10/13 02:08:53;;;;;;;;;5.00;4.00;;;;;13.26;69.30;102208.69;5029925;28;45546;-76
2021/10/13 02:11:25;;;;;;;;;6.00;4.00;;;;;13.26;68.71;102211.34;5022630;28;46424;-76
2021/10/13 02:13:50;;;;;;;;;7.67;4.33;;;;;13.23;69.24;102211.28;5042279;28;45561;-77
2021/10/13 02:16:15;;;;;;;;;8.00;4.33;;;;;13.22;68.79;102209.50;5029326;28;45439;-75
2021/10/13 02:18:41;;;;;;;;;5.67;5.33;;;;;13.20;68.61;102208.53;5024588;28;54580;-76
2021/10/13 02:21:06;;;;;;;;;6.33;4.00;;;;;13.15;68.71;102207.53;5024753;28;63561;-78
2021/10/13 02:23:33;;;;;;;;;6.00;4.00;;;;;13.12;68.41;102208.38;5024677;28;60043;-76
2021/10/13 02:26:02;;;;;;;;;7.33;4.00;;;;;13.09;68.49;102216.22;5039829;28;45469;-76
2021/10/13 02:28:32;;;;;;;;;9.00;4.00;;;;;13.07;68.43;102220.63;5039252;28;45498;-75
2021/10/13 02:30:58;;;;;;;;;3.00;3.00;;;;;13.00;68.52;102222.25;5038089;28;47707;-75
2021/10/13 02:33:24;;;;;;;;;4.33;4.33;;;;;13.00;68.51;102224.00;5046172;28;45481;-76
2021/10/13 02:35:51;;;;;;;;;7.00;4.00;;;;;12.96;68.28;102225.69;5055135;28;45228;-76
2021/10/13 02:38:16;;;;;;;;;4.00;4.00;;;;;12.91;68.32;102221.13;5052611;28;45313;-76
2021/10/13 02:40:41;;;;;;;;;4.33;4.33;;;;;12.89;68.59;102226.41;5057451;28;50356;-75
2021/10/13 02:43:07;;;;;;;;;8.67;4.67;;;;;12.81;68.36;102212.06;5039314;28;45272;-78
2021/10/13 02:45:35;;;;;;;;;5.00;5.00;;;;;12.82;68.26;102227.97;5049064;28;54502;-76
2021/10/13 02:48:03;;;;;;;;;5.33;4.67;;;;;12.78;68.62;102227.88;5041984;28;45653;-75
2021/10/13 02:50:35;;;;;;;;;6.67;4.00;;;;;12.73;68.55;102226.84;5035687;28;47546;-75
2021/10/13 02:53:22;;;;;;;;;7.33;4.33;;;;;12.66;68.34;102222.28;5042969;28;45510;-76
2021/10/13 02:55:50;;;;;;;;;4.00;4.00;;;;;12.67;68.25;102234.66;5021234;28;45424;-76
2021/10/13 02:58:20;;;;;;;;;6.00;3.00;;;;;12.62;68.56;102236.31;5056263;28;45509;-76
2021/10/13 03:00:45;;;;;;;;;4.67;4.67;;;;;12.57;68.31;102231.81;5055618;28;47774;-76
2021/10/13 03:03:25;;;;;;;;;4.00;4.00;;;;;12.53;68.12;102236.97;5036246;28;45346;-75
2021/10/13 03:05:50;;;;;;;;;5.67;4.67;;;;;12.49;68.34;102238.66;5035350;28;45435;-77
2021/10/13 03:08:17;;;;;;;;;7.00;4.00;;;;;12.42;68.46;102235.81;5041573;28;54805;-75
2021/10/13 03:10:45;;;;;;;;;5.00;3.00;;;;;12.43;68.45;102246.44;5034035;28;47524;-75
2021/10/13 03:13:11;;;;;;;;;5.67;4.67;;;;;12.40;68.07;102246.34;5036921;28;45748;-76
2021/10/13 03:15:36;;;;;;;;;6.67;3.67;;;;;12.36;68.39;102240.94;5015606;28;55741;-76
2021/10/13 03:18:02;;;;;;;;;5.00;3.00;;;;;12.34;68.23;102246.19;5033339;28;45494;-76
2021/10/13 03:20:28;;;;;;;;;7.33;4.00;;;;;12.31;68.19;102243.47;5038478;28;47525;-77
2021/10/13 03:22:55;;;;;;;;;3.00;3.00;;;;;12.25;68.12;102240.66;5038286;28;45529;-76
2021/10/13 03:25:31;;;;;;;;;3.67;3.00;;;;;12.25;68.16;102240.66;5037580;28;46276;-76
2021/10/13 03:27:57;;;;;;;;;4.67;2.67;;;;;12.21;68.06;102244.09;5056710;28;45450;-76
2021/10/13 03:30:22;;;;;;;;;2.00;2.00;;;;;12.16;68.03;102237.78;5048859;28;46835;-77
2021/10/13 03:32:48;;;;;;;;;4.67;3.00;;;;;12.15;68.09;102243.94;5057488;28;53109;-75
2021/10/13 03:35:27;;;;;;;;;4.00;3.00;;;;;12.13;68.10;102248.25;5056848;28;55007;-75
2021/10/13 03:37:53;;;;;;;;;3.00;3.00;;;;;12.09;68.09;102254.31;5052392;28;45328;-75
2021/10/13 03:40:19;;;;;;;;;6.00;2.00;;;;;12.05;68.06;102256.91;5055949;28;45415;-75
2021/10/13 03:42:44;;;;;;;;;3.33;3.33;;;;;12.01;68.15;102257.66;5054452;28;45510;-75
2021/10/13 03:45:14;;;;;;;;;3.67;3.00;;;;;11.96;68.09;102259.28;5057447;28;45320;-75
2021/10/13 03:47:39;;;;;;;;;4.33;3.00;;;;;11.97;68.24;102263.72;5037201;28;45502;-76
2021/10/13 03:50:05;;;;;;;;;7.00;3.67;;;;;11.94;68.22;102250.41;5052317;28;47424;-75
2021/10/13 03:52:30;;;;;;;;;8.00;3.33;;;;;11.93;68.43;102253.00;5035443;28;45352;-76
2021/10/13 03:54:56;;;;;;;;;2.00;2.00;;;;;11.93;68.36;102264.50;5056560;28;45546;-77
2021/10/13 03:57:21;;;;;;;;;7.33;4.00;;;;;11.87;68.25;102264.31;5054489;28;53403;-76
2021/10/13 03:59:47;;;;;;;;;2.67;1.00;;;;;11.87;68.33;102266.97;5054929;28;59369;-77
2021/10/13 04:02:12;;;;;;;;;3.00;3.00;;;;;11.86;68.21;102269.56;5052030;28;58781;-76
2021/10/13 04:04:37;;;;;;;;;3.67;2.67;;;;;11.79;68.14;102265.81;5052677;28;45423;-76
2021/10/13 04:07:03;;;;;;;;;4.33;2.67;;;;;11.80;68.23;102281.75;5051119;28;50521;-76
2021/10/13 04:09:28;;;;;;;;;5.00;2.33;;;;;11.73;68.24;102271.84;5055797;28;47814;-77
2021/10/13 04:11:54;;;;;;;;;4.67;4.00;;;;;11.74;68.12;102273.63;5055212;28;56783;-76
2021/10/13 04:14:19;;;;;;;;;5.00;5.00;;;;;11.72;68.21;102282.38;5055790;28;48351;-75
2021/10/13 04:16:44;;;;;;;;;5.00;4.00;;;;;11.70;68.21;102290.25;5055549;28;45474;-75
2021/10/13 04:19:10;;;;;;;;;7.33;4.00;;;;;11.65;68.38;102283.03;5055666;28;46567;-77
2021/10/13 04:21:35;;;;;;;;;4.00;4.00;;;;;11.61;68.21;102279.41;5053551;28;61195;-75
2021/10/13 04:24:00;;;;;;;;;4.00;4.00;;;;;11.63;68.40;102290.94;5055723;28;54696;-76
2021/10/13 04:26:26;;;;;;;;;5.00;5.00;;;;;11.62;68.19;102293.53;5058832;28;54573;-76
2021/10/13 04:28:51;;;;;;;;;4.00;4.00;;;;;11.60;68.30;102285.53;5060570;28;58524;-76
2021/10/13 04:31:17;;;;;;;;;9.00;5.00;;;;;11.58;68.51;102308.41;5061384;28;55098;-76
2021/10/13 04:33:42;;;;;;;;;7.00;4.00;;;;;11.55;68.48;102301.25;5058123;28;45827;-76
2021/10/13 04:36:07;;;;;;;;;4.00;4.00;;;;;11.54;68.33;102295.94;5056010;28;45529;-76
2021/10/13 04:38:33;;;;;;;;;7.67;5.67;;;;;11.52;68.36;102301.19;5057505;28;58881;-77
2021/10/13 04:40:58;;;;;;;;;7.00;7.00;;;;;11.50;68.45;102309.91;5061598;28;58769;-76
2021/10/13 04:43:23;;;;;;;;;4.00;4.00;;;;;11.49;68.51;102302.84;5063404;28;55480;-75
2021/10/13 04:45:49;;;;;;;;;9.33;7.00;;;;;11.47;68.50;102310.72;5063319;28;51692;-76
2021/10/13 04:48:14;;;;;;;;;7.67;4.00;;;;;11.46;68.40;102316.88;5047128;28;59763;-74
2021/10/13 04:50:39;;;;;;;;;13.33;8.00;;;;;11.38;68.56;102302.50;5065951;28;47413;-74
2021/10/13 04:53:05;;;;;;;;;5.00;5.00;;;;;11.44;68.43;102315.91;5059829;28;55824;-74
2021/10/13 04:55:30;;;;;;;;;7.33;7.33;;;;;11.43;68.63;102311.47;5048630;28;51453;-76
2021/10/13 04:57:56;;;;;;;;;8.67;7.00;;;;;11.42;68.64;102319.38;5047927;28;46561;-76
2021/10/13 05:00:21;;;;;;;;;9.67;6.67;;;;;11.40;68.78;102323.69;5048226;28;45453;-76
2021/10/13 05:02:47;;;;;;;;;9.00;7.00;;;;;11.37;68.63;102310.41;5053856;28;45353;-74
2021/10/13 05:05:13;;;;;;;;;9.00;7.67;;;;;11.41;68.87;102320.22;5054046;28;45453;-75
2021/10/13 05:07:38;;;;;;;;;11.33;8.00;;;;;11.40;68.89;102313.13;5049578;28;47410;-73
2021/10/13 05:10:04;;;;;;;;;11.00;8.00;;;;;11.41;68.89;102321.13;5054973;28;48442;-73
2021/10/13 05:12:29;;;;;;;;;9.00;7.67;;;;;11.41;68.91;102320.22;5053609;28;45279;-73
2021/10/13 05:14:55;;;;;;;;;8.00;7.67;;;;;11.40;69.02;102331.63;5050341;28;53322;-72
2021/10/13 05:17:20;;;;;;;;;7.00;7.00;;;;;11.38;68.76;102328.06;5048514;28;45688;-73
2021/10/13 05:19:45;;;;;;;;;9.00;7.00;;;;;11.36;68.81;102327.13;5053605;28;45223;-73
2021/10/13 05:22:11;;;;;;;;;14.67;7.00;;;;;11.33;68.64;102338.47;5058077;28;50291;-73
2021/10/13 05:24:36;;;;;;;;;8.67;8.00;;;;;11.27;68.70;102331.25;5053465;28;53453;-73
2021/10/13 05:27:01;;;;;;;;;13.00;9.00;;;;;11.29;68.57;102339.22;5053798;28;54685;-73
2021/10/13 05:29:27;;;;;;;;;9.67;8.00;;;;;11.27;68.53;102338.28;5059092;28;58443;-73
2021/10/13 05:31:53;;;;;;;;;10.00;8.67;;;;;11.26;68.55;102344.44;5053712;28;48051;-73
2021/10/13 05:34:18;;;;;;;;;9.33;8.00;;;;;11.18;68.46;102332.69;5051671;28;45557;-74
2021/10/13 05:36:44;;;;;;;;;11.67;7.67;;;;;11.16;68.82;102331.75;5055869;28;45707;-73
2021/10/13 05:39:09;;;;;;;;;8.00;8.00;;;;;11.18;68.49;102338.88;5059861;28;45474;-72
2021/10/13 05:41:35;;;;;;;;;8.00;8.00;;;;;11.17;68.69;102349.41;5050030;28;45435;-74
2021/10/13 05:44:00;;;;;;;;;9.00;7.67;;;;;11.15;68.54;102348.47;5050457;28;53647;-73
2021/10/13 05:46:25;;;;;;;;;9.00;7.00;;;;;11.13;68.56;102347.50;5056624;28;46146;-73
2021/10/13 05:48:51;;;;;;;;;8.33;8.00;;;;;11.10;68.55;102356.25;5055677;28;45543;-74
2021/10/13 05:51:16;;;;;;;;;9.67;9.00;;;;;11.09;68.71;102354.47;5055842;28;57763;-75
2021/10/13 05:53:42;;;;;;;;;8.67;7.67;;;;;11.09;68.70;102356.22;5057994;28;54201;-72
2021/10/13 05:56:07;;;;;;;;;9.33;7.00;;;;;11.08;68.86;102357.03;5059633;28;60653;-73
2021/10/13 05:58:32;;;;;;;;;10.67;9.00;;;;;10.97;68.55;102343.44;5035349;28;57823;-73
2021/10/13 06:00:58;;;;;;;;;10.00;10.00;;;;;11.06;68.76;102361.38;5056462;28;45414;-75
2021/10/13 06:03:23;;;;;;;;;10.00;9.67;;;;;11.05;68.92;102362.22;5055579;28;45573;-74
2021/10/13 06:05:49;;;;;;;;;14.67;12.33;;;;;11.02;68.96;102353.38;5057347;28;63038;-73
2021/10/13 06:08:14;;;;;;;;;15.00;13.00;;;;;11.04;69.05;102361.34;5056189;28;48828;-73
2021/10/13 06:10:40;;;;;;;;;14.33;12.00;;;;;11.00;68.93;102354.13;5047764;28;45285;-73
2021/10/13 06:13:05;;;;;;;;;14.00;10.00;;;;;11.02;69.08;102368.28;5050027;28;46255;-73
2021/10/13 06:15:34;;;;;;;;;13.00;13.00;;;;;11.03;69.02;102370.13;5054314;28;61659;-73
2021/10/13 06:18:04;;;;;;;;;13.33;12.00;;;;;11.04;69.02;102365.72;5039146;28;45352;-73
2021/10/13 06:20:29;;;;;;;;;11.33;11.33;;;;;11.04;69.11;102373.66;5054727;28;45644;-73
2021/10/13 06:22:54;;;;;;;;;13.33;10.00;;;;;11.03;69.27;102375.41;5049407;28;49374;-75
2021/10/13 06:25:20;;;;;;;;;13.67;13.33;;;;;11.04;69.19;102382.47;5031103;28;45756;-75
2021/10/13 06:27:46;;;;;;;;;13.00;11.33;;;;;11.04;69.39;102381.59;5057109;28;45347;-77
2021/10/13 06:30:11;;;;;;;;;34.25;30.00;;;;;11.04;69.14;102390.41;5057586;28;45438;-77
2021/10/13 06:32:37;;;;;;;;;30.00;26.75;;;;;11.02;69.01;102387.72;5052926;28;51966;-76
2021/10/13 06:35:02;;;;;;;;;37.00;30.50;;;;;11.05;69.18;102396.59;5054614;28;59582;-76
2021/10/13 06:37:28;;;;;;;;;37.75;34.25;;;;;11.04;69.28;102397.44;5058659;28;45767;-77
2021/10/13 06:39:53;;;;;;;;;39.50;32.75;;;;;11.03;69.63;102404.47;5057985;28;46317;-76
2021/10/13 06:42:18;;;;;;;;;14.50;6.75;;;;;11.02;69.65;102397.38;5049468;28;54206;-76
2021/10/13 06:44:44;;;;;;;;;27.25;25.25;;;;;11.02;69.82;102394.72;5050679;28;62581;-76
2021/10/13 06:47:09;;;;;;;;;22.00;20.75;;;;;11.03;69.61;102399.19;5036172;28;45396;-77
2021/10/13 06:49:35;;;;;;;;;20.00;18.25;;;;;11.05;70.00;102391.31;5052281;28;54245;-76
2021/10/13 06:52:00;;;;;;;;;16.50;15.50;;;;;11.06;69.75;102401.91;5055412;28;45363;-77
2021/10/13 06:54:26;;;;;;;;;20.00;15.50;;;;;11.08;70.07;102392.31;5055655;28;46291;-76
2021/10/13 06:56:51;;;;;;;;;20.25;16.75;;;;;11.10;69.75;102397.66;5054663;28;58153;-78
2021/10/13 06:59:17;;;;;;;;;21.75;17.25;;;;;11.06;70.16;102393.09;5047119;28;55360;-75
2021/10/13 07:01:42;;;;;;;;;19.00;15.25;;;;;11.10;71.47;102405.56;5053569;28;54226;-79
2021/10/13 07:04:07;;;;;;;;;24.50;19.25;;;;;11.05;71.86;102408.06;5053251;28;45459;-77
2021/10/13 07:06:33;;;;;;;;;20.25;17.50;;;;;11.04;71.11;102408.03;5057371;28;60327;-75
2021/10/13 07:08:58;;;;;;;;;19.00;16.00;;;;;11.06;71.28;102414.25;5051573;28;51894;-75
2021/10/13 07:11:24;;;;;;;;;21.50;18.50;;;;;11.09;71.46;102423.19;5054845;28;56776;-75
2021/10/13 07:13:50;;;;;;;;;22.75;18.75;;;;;11.13;71.45;102422.47;5052330;28;46791;-75
2021/10/13 07:16:15;;;;;;;;;25.00;17.50;;;;;11.19;71.19;102427.94;5054065;28;46273;-75
2021/10/13 07:18:41;;;;;;;;;22.75;16.75;;;;;11.24;71.44;102430.75;5052765;28;45498;-75
2021/10/13 07:21:06;;;;;;;;;25.25;19.75;;;;;11.33;71.35;102430.13;5052419;28;45459;-75
2021/10/13 07:23:31;;;;;;;;;29.50;22.75;;;;;11.36;71.26;102427.63;5052333;28;59426;-75
2021/10/13 07:25:57;;;;;;;;;26.25;21.50;;;;;11.42;71.38;102431.34;5053858;28;60978;-75
2021/10/13 07:28:24;;;;;;;;;25.25;20.75;;;;;11.41;71.29;102423.38;5058735;28;45416;-75
2021/10/13 07:30:50;;;;;;;;;26.00;23.25;;;;;11.49;71.23;102441.28;5051289;28;45530;-75
2021/10/13 07:33:15;;;;;;;;;22.00;21.25;;;;;11.55;71.00;102445.88;5111928;23;60337;-74
2021/10/13 07:35:41;;;;;;;;;24.50;21.50;;;;;11.59;71.53;102450.41;4979416;28;45520;-76
2021/10/13 07:38:09;;;;;;;;;22.67;17.00;;;;;11.64;71.16;102450.56;4985395;28;45436;-75
2021/10/13 07:40:34;;;;;;;;;22.33;17.00;;;;;11.66;71.92;102446.22;4961970;28;45809;-75
2021/10/13 07:43:00;;;;;;;;;23.33;17.33;;;;;11.68;71.49;102449.81;5042629;27;63558;-76
2021/10/13 07:45:25;;;;;;;;;25.67;18.33;;;;;11.71;71.72;102445.50;4998573;27;45443;-76
2021/10/13 07:47:51;;;;;;;;;17.00;17.00;;;;;11.73;72.34;102443.84;4977442;28;45395;-77
2021/10/13 07:50:16;;;;;;;;;24.33;17.33;;;;;11.75;71.74;102439.47;4980860;28;51467;-77
2021/10/13 07:52:42;;;;;;;;;18.67;17.00;;;;;11.78;72.02;102449.28;4987670;28;46424;-75
2021/10/13 07:55:07;;;;;;;;;21.33;18.33;;;;;11.77;71.63;102440.44;5047371;28;61099;-76
2021/10/13 07:57:32;;;;;;;;;21.00;20.25;;;;;11.85;71.79;102450.41;4984983;28;45511;-76
2021/10/13 07:59:58;;;;;;;;;28.50;20.00;;;;;11.86;71.96;102441.59;4993082;27;45644;-74
2021/10/13 08:02:23;;;;;;;;;21.00;17.50;;;;;11.94;71.83;102459.53;4987927;28;54828;-75
2021/10/13 08:04:49;;;;;;;;;23.00;17.00;;;;;11.99;71.47;102459.69;4990710;27;60704;-78
2021/10/13 08:07:16;;;;;;;;;29.00;19.33;;;;;12.01;71.81;102463.25;4969753;28;45503;-75
2021/10/13 08:09:41;;;;;;;;;20.33;17.33;;;;;12.03;71.74;102456.25;4995109;28;45326;-75
2021/10/13 08:12:07;;;;;;;;;21.67;18.00;;;;;12.06;72.28;102451.97;4971531;28;45903;-77
2021/10/13 08:14:32;;;;;;;;;18.67;15.33;;;;;12.04;71.79;102466.03;4988174;28;45493;-76
2021/10/13 08:16:58;;;;;;;;;15.33;15.33;;;;;12.02;71.87;102462.41;4987203;28;55382;-75
2021/10/13 08:19:24;;;;;;;;;17.33;17.00;;;;;12.02;71.97;102460.66;4984304;28;46116;-75
2021/10/13 08:21:49;;;;;;;;;18.33;15.67;;;;;11.97;71.51;102451.66;4981153;27;46691;-76
2021/10/13 08:24:15;;;;;;;;;19.33;18.00;;;;;12.02;71.32;102463.31;4973174;28;45391;-75
2021/10/13 08:26:40;;;;;;;;;24.00;18.67;;;;;12.03;71.54;102456.25;4971678;27;55403;-77
2021/10/13 08:29:06;;;;;;;;;19.33;16.00;;;;;12.05;71.41;102458.13;4983660;28;54840;-76
2021/10/13 08:31:31;;;;;;;;;25.33;18.33;;;;;12.11;71.53;102465.34;4979490;28;61843;-76
2021/10/13 08:33:56;;;;;;;;;22.33;18.00;;;;;12.15;71.18;102464.59;4960924;28;50292;-75
2021/10/13 08:36:22;;;;;;;;;25.33;16.67;;;;;12.19;71.18;102469.13;4965706;28;50642;-76
2021/10/13 08:38:47;;;;;;;;;24.33;20.00;;;;;12.18;70.67;102463.78;4948867;28;45502;-76
2021/10/13 08:41:13;;;;;;;;;21.50;19.00;;;;;12.25;70.52;102469.31;4970562;28;45615;-76
2021/10/13 08:43:38;;;;;;;;;20.25;17.50;;;;;12.29;70.60;102473.84;4986891;28;45561;-79
2021/10/13 08:46:04;;;;;;;;;24.00;18.75;;;;;12.27;70.45;102456.13;4986786;28;49541;-76
2021/10/13 08:48:29;;;;;;;;;24.50;23.00;;;;;12.33;70.13;102472.19;4961199;28;52774;-75
2021/10/13 08:50:54;;;;;;;;;20.00;18.75;;;;;12.35;68.71;102473.13;4973742;28;58775;-75
2021/10/13 08:53:24;;;;;;;;;12.67;12.00;;;;;12.35;68.76;102469.56;4988097;28;58634;-74
2021/10/13 08:55:50;;;;;;;;;18.00;15.33;;;;;12.39;68.36;102479.44;4980609;28;45407;-78
2021/10/13 08:58:26;;;;;;;;;19.00;17.00;;;;;12.39;69.17;102477.66;4962802;28;45574;-75
2021/10/13 09:01:10;;;;;;;;;17.33;16.67;;;;;12.45;68.77;102474.31;4969038;28;48235;-75
2021/10/13 09:03:41;;;;;;;;;28.00;16.00;;;;;12.53;69.22;102476.34;4972990;28;45434;-76
2021/10/13 09:06:20;;;;;;;;;24.67;16.33;;;;;12.62;68.31;102480.09;4992053;27;45449;-75
2021/10/13 09:09:02;;;;;;;;;17.00;15.00;;;;;12.70;68.59;102478.56;4985342;28;45158;-75
2021/10/13 09:11:33;;;;;;;;;22.33;19.00;;;;;12.76;68.60;102478.75;4992244;28;47337;-76
2021/10/13 09:14:15;;;;;;;;;22.33;17.67;;;;;12.81;67.85;102480.66;4994272;28;45474;-76
2021/10/13 09:17:08;;;;;;;;;17.67;14.00;;;;;12.89;67.51;102486.22;4995473;28;45607;-76
2021/10/13 09:19:33;;;;;;;;;15.67;14.00;;;;;12.93;67.55;102480.09;4984105;27;45690;-75
2021/10/13 09:22:02;;;;;;;;;14.00;14.00;;;;;12.98;66.89;102485.53;4985205;28;45715;-76
2021/10/13 09:24:29;;;;;;;;;17.33;13.67;;;;;13.02;67.16;102483.03;4990984;28;45501;-77
2021/10/13 09:26:56;;;;;;;;;14.00;14.00;;;;;13.07;67.20;102481.38;4983985;28;45533;-79
2021/10/13 09:29:22;;;;;;;;;18.33;14.33;;;;;13.14;66.73;102474.50;4984825;28;45462;-76
2021/10/13 09:31:58;;;;;;;;;21.33;15.00;;;;;13.18;66.51;102480.78;4974670;28;47371;-76
2021/10/13 09:34:24;;;;;;;;;19.67;14.33;;;;;13.24;66.86;102475.69;4983968;28;45384;-79
2021/10/13 09:36:58;;;;;;;;;18.67;13.33;;;;;13.30;66.48;102474.06;4977894;28;45427;-76
2021/10/13 09:39:24;;;;;;;;;14.00;12.33;;;;;13.36;65.85;102487.50;4990916;28;45473;-75
2021/10/13 09:41:55;;;;;;;;;13.00;12.00;;;;;13.43;65.26;102477.06;4955020;28;47378;-75
2021/10/13 09:44:21;;;;;;;;;20.00;13.00;;;;;13.48;66.41;102476.31;4990767;28;45995;-76
2021/10/13 09:46:48;;;;;;;;;18.00;14.00;;;;;13.53;65.93;102481.72;4989306;28;45378;-77
2021/10/13 09:49:13;;;;;;;;;15.00;13.67;;;;;13.57;65.46;102475.63;4975681;28;45620;-80
2021/10/13 09:51:38;;;;;;;;;16.00;16.00;;;;;13.61;65.97;102480.16;4989425;27;46791;-72
2021/10/13 09:54:07;;;;;;;;;15.00;13.33;;;;;13.66;65.62;102474.97;4984018;28;60852;-72
2021/10/13 09:56:35;;;;;;;;;13.00;11.33;;;;;13.72;65.25;102481.31;4983021;28;45493;-73
2021/10/13 09:59:16;;;;;;;;;11.67;11.33;;;;;13.79;65.81;102477.94;4988653;27;45355;-73
2021/10/13 10:01:47;;;;;;;;;11.67;11.67;;;;;13.82;65.45;102478.03;4990940;28;46648;-73
2021/10/13 10:04:16;;;;;;;;;10.67;9.33;;;;;13.88;65.47;102472.88;4974414;28;45998;-73
2021/10/13 10:06:43;;;;;;;;;12.67;9.00;;;;;13.99;65.13;102473.13;4999363;28;45539;-73
2021/10/13 10:09:08;;;;;;;;;12.00;11.00;;;;;14.04;64.62;102479.44;4990698;27;45430;-73
2021/10/13 10:11:35;;;;;;;;;9.67;8.67;;;;;14.05;64.32;102478.56;4976045;28;46337;-72
2021/10/13 10:14:02;;;;;;;;;13.67;11.00;;;;;14.15;64.40;102492.97;4978567;28;45394;-74
2021/10/13 10:16:29;;;;;;;;;14.00;10.33;;;;;14.13;64.21;102479.66;4981765;28;45457;-76
2021/10/13 10:18:54;;;;;;;;;11.00;7.33;;;;;14.24;63.73;102490.53;4978122;28;45537;-75
2021/10/13 10:21:26;;;;;;;;;14.00;13.67;;;;;14.31;63.72;102496.88;4966614;28;46492;-75
2021/10/13 10:23:52;;;;;;;;;6.67;6.33;;;;;14.39;63.75;102487.31;4990463;28;45490;-75
2021/10/13 10:26:24;;;;;;;;;16.00;9.67;;;;;14.45;63.23;102490.09;4993267;28;47162;-74
2021/10/13 10:28:52;;;;;;;;;4.33;3.00;;;;;14.56;63.23;102483.28;4987007;27;45505;-74
2021/10/13 10:31:27;;;;;;;;;3.00;3.00;;;;;14.68;62.54;102486.19;4991832;28;46937;-76
2021/10/13 10:34:05;;;;;;;;;5.00;3.00;;;;;14.76;61.87;102474.84;4981839;28;45349;-74
2021/10/13 10:37:07;;;;;;;;;6.00;3.33;;;;;14.82;61.68;102477.59;4984651;28;45437;-75
2021/10/13 10:39:52;;;;;;;;;3.00;3.00;;;;;14.86;61.46;102467.06;4978489;28;46334;-75
2021/10/13 10:42:54;;;;;;;;;4.00;3.00;;;;;14.99;61.04;102462.88;4986068;28;47405;-73
2021/10/13 10:45:21;;;;;;;;;4.00;4.00;;;;;15.06;60.85;102469.19;4986304;28;45505;-73
2021/10/13 10:47:48;;;;;;;;;10.00;7.00;;;;;15.09;61.12;102459.50;4986002;28;45458;-73
2021/10/13 10:50:14;;;;;;;;;2.33;2.00;;;;;15.25;60.90;102458.03;5043519;27;45509;-73
2021/10/13 10:52:59;;;;;;;;;2.00;2.00;;;;;15.45;58.74;102459.28;5037705;27;47538;-73
2021/10/13 10:55:34;;;;;;;;;3.00;3.00;;;;;15.69;59.20;102464.13;5003230;27;45415;-73
2021/10/13 10:58:14;;;;;;;;;4.67;2.00;;;;;15.80;59.77;102453.63;5066448;27;45634;-73
2021/10/13 11:00:39;;;;;;;;;2.00;2.00;;;;;15.93;59.50;102463.63;5019971;28;45546;-73
2021/10/13 11:03:19;;;;;;;;;2.67;1.00;;;;;15.95;57.88;102472.53;5067577;27;46624;-73
2021/10/13 11:05:45;;;;;;;;;1.67;1.00;;;;;15.96;57.73;102476.09;4974053;27;45396;-73
2021/10/13 11:08:10;;;;;;;;;4.00;1.00;;;;;15.97;57.33;102472.53;4986573;28;46173;-73
2021/10/13 11:10:36;;;;;;;;;1.33;1.00;;;;;16.00;57.64;102471.72;4977650;28;57697;-73
2021/10/13 11:13:01;;;;;;;;;1.00;1.00;;;;;16.05;57.03;102481.56;5026121;27;47569;-72
2021/10/13 11:15:28;;;;;;;;;3.00;0.00;;;;;16.07;56.68;102487.78;5065293;27;48547;-73
2021/10/13 11:17:53;;;;;;;;;3.00;0.00;;;;;16.04;56.21;102490.44;4982065;28;46093;-73
2021/10/13 11:20:23;;;;;;;;;0.00;0.00;;;;;16.03;57.19;102487.72;4973721;28;45597;-73